sensor_id;sensor_type;location;lat;lon;timestamp;temperature;humidity
24017;DHT22;12222;50.090;19.702;2022-12-18T00:03:13;-4.50;99.90
24017;DHT22;12222;50.090;19.702;2022-12-18T00:08:16;-4.60;99.90
24017;DHT22;12222;50.090;19.702;2022-12-18T00:13:18;-4.50;99.90
24017;DHT22;12222;50.090;19.702;2022-12-18T00:18:20;-4.50;99.90
24017;DHT22;12222;50.090;19.702;2022-12-18T00:23:21;-4.60;99.90
24017;DHT22;12222;50.090;19.702;2022-12-18T00:28:23;-4.50;99.90
24017;DHT22;12222;50.090;19.702;2022-12-18T00:33:25;-4.40;99.90
24017;DHT22;12222;50.090;19.702;2022-12-18T00:38:27;-4.30;99.90
24017;DHT22;12222;50.090;19.702;2022-12-18T00:43:29;-4.50;99.90
24017;DHT22;12222;50.090;19.702;2022-12-18T00:48:31;-4.60;99.90
24017;DHT22;12222;50.090;19.702;2022-12-18T00:53:33;-4.60;99.90
24017;DHT22;12222;50.090;19.702;2022-12-18T00:58:35;-4.50;99.90
24017;DHT22;12222;50.090;19.702;2022-12-18T01:03:38;-4.70;99.90
24017;DHT22;12222;50.090;19.702;2022-12-18T01:08:42;-4.70;99.90
24017;DHT22;12222;50.090;19.702;2022-12-18T01:13:46;-4.60;99.90
24017;DHT22;12222;50.090;19.702;2022-12-18T01:18:52;-4.70;99.90
24017;DHT22;12222;50.090;19.702;2022-12-18T01:23:56;-4.60;99.90
24017;DHT22;12222;50.090;19.702;2022-12-18T01:28:58;-4.60;99.90
24017;DHT22;12222;50.090;19.702;2022-12-18T01:34:01;-4.60;99.90
24017;DHT22;12222;50.090;19.702;2022-12-18T01:39:05;-4.50;99.90
24017;DHT22;12222;50.090;19.702;2022-12-18T01:49:48;-4.50;99.90
24017;DHT22;12222;50.090;19.702;2022-12-18T01:54:50;-4.40;99.90
24017;DHT22;12222;50.090;19.702;2022-12-18T01:59:53;-4.30;99.90
24017;DHT22;12222;50.090;19.702;2022-12-18T02:04:57;-4.30;99.90
24017;DHT22;12222;50.090;19.702;2022-12-18T02:10:05;-4.40;99.90
24017;DHT22;12222;50.090;19.702;2022-12-18T02:15:18;-4.30;99.90
24017;DHT22;12222;50.090;19.702;2022-12-18T02:20:33;-4.20;99.90
24017;DHT22;12222;50.090;19.702;2022-12-18T02:31:17;-4.30;99.90
24017;DHT22;12222;50.090;19.702;2022-12-18T02:36:22;-4.20;99.90
24017;DHT22;12222;50.090;19.702;2022-12-18T02:41:26;-4.20;99.90
24017;DHT22;12222;50.090;19.702;2022-12-18T02:46:34;-4.40;99.90
24017;DHT22;12222;50.090;19.702;2022-12-18T02:56:56;-4.50;99.90
24017;DHT22;12222;50.090;19.702;2022-12-18T03:02:21;-4.50;99.90
24017;DHT22;12222;50.090;19.702;2022-12-18T03:07:34;-4.30;99.90
24017;DHT22;12222;50.090;19.702;2022-12-18T03:12:49;-4.30;99.90
24017;DHT22;12222;50.090;19.702;2022-12-18T03:18:06;-4.30;99.90
24017;DHT22;12222;50.090;19.702;2022-12-18T03:23:15;-4.40;99.90
24017;DHT22;12222;50.090;19.702;2022-12-18T03:28:22;-4.30;99.90
24017;DHT22;12222;50.090;19.702;2022-12-18T03:33:38;-4.30;99.90
24017;DHT22;12222;50.090;19.702;2022-12-18T03:38:42;-4.40;99.90
24017;DHT22;12222;50.090;19.702;2022-12-18T03:49:12;-4.40;99.90
24017;DHT22;12222;50.090;19.702;2022-12-18T03:54:18;-4.50;99.90
24017;DHT22;12222;50.090;19.702;2022-12-18T03:59:29;-4.50;99.90
24017;DHT22;12222;50.090;19.702;2022-12-18T04:04:34;-4.50;99.90
24017;DHT22;12222;50.090;19.702;2022-12-18T04:09:39;-4.50;99.90
24017;DHT22;12222;50.090;19.702;2022-12-18T04:14:42;-4.40;99.90
24017;DHT22;12222;50.090;19.702;2022-12-18T04:19:44;-4.50;99.90
24017;DHT22;12222;50.090;19.702;2022-12-18T04:24:47;-4.50;99.90
24017;DHT22;12222;50.090;19.702;2022-12-18T04:29:57;-4.50;99.90
24017;DHT22;12222;50.090;19.702;2022-12-18T04:34:59;-4.50;99.90
24017;DHT22;12222;50.090;19.702;2022-12-18T04:40:01;-4.60;99.90
24017;DHT22;12222;50.090;19.702;2022-12-18T04:45:11;-4.60;99.90
24017;DHT22;12222;50.090;19.702;2022-12-18T04:50:13;-4.60;99.90
24017;DHT22;12222;50.090;19.702;2022-12-18T04:55:15;-4.60;99.90
24017;DHT22;12222;50.090;19.702;2022-12-18T05:00:17;-4.60;99.90
24017;DHT22;12222;50.090;19.702;2022-12-18T05:05:19;-4.60;99.90
24017;DHT22;12222;50.090;19.702;2022-12-18T05:10:22;-4.60;99.90
24017;DHT22;12222;50.090;19.702;2022-12-18T05:15:27;-4.70;99.90
24017;DHT22;12222;50.090;19.702;2022-12-18T05:20:30;-4.70;99.90
24017;DHT22;12222;50.090;19.702;2022-12-18T05:25:32;-4.70;99.90
24017;DHT22;12222;50.090;19.702;2022-12-18T05:30:33;-4.70;99.90
24017;DHT22;12222;50.090;19.702;2022-12-18T05:35:35;-4.70;99.90
24017;DHT22;12222;50.090;19.702;2022-12-18T05:40:40;-4.70;99.90
24017;DHT22;12222;50.090;19.702;2022-12-18T05:45:42;-4.70;99.90
24017;DHT22;12222;50.090;19.702;2022-12-18T05:50:45;-4.70;99.90
24017;DHT22;12222;50.090;19.702;2022-12-18T05:55:48;-4.70;99.90
24017;DHT22;12222;50.090;19.702;2022-12-18T06:00:50;-4.70;99.90
24017;DHT22;12222;50.090;19.702;2022-12-18T06:05:52;-4.70;99.90
24017;DHT22;12222;50.090;19.702;2022-12-18T06:10:54;-4.70;99.90
24017;DHT22;12222;50.090;19.702;2022-12-18T06:15:56;-4.80;99.90
24017;DHT22;12222;50.090;19.702;2022-12-18T06:20:58;-4.70;99.90
24017;DHT22;12222;50.090;19.702;2022-12-18T06:26:08;-4.80;99.90
24017;DHT22;12222;50.090;19.702;2022-12-18T06:31:11;-4.80;99.90
24017;DHT22;12222;50.090;19.702;2022-12-18T06:36:13;-4.80;99.90
24017;DHT22;12222;50.090;19.702;2022-12-18T06:41:20;-4.70;99.90
24017;DHT22;12222;50.090;19.702;2022-12-18T06:46:22;-4.70;99.90
24017;DHT22;12222;50.090;19.702;2022-12-18T06:51:25;-4.70;99.90
24017;DHT22;12222;50.090;19.702;2022-12-18T06:56:27;-4.70;99.90
24017;DHT22;12222;50.090;19.702;2022-12-18T07:01:29;-4.70;99.90
24017;DHT22;12222;50.090;19.702;2022-12-18T07:06:31;-4.70;99.90
24017;DHT22;12222;50.090;19.702;2022-12-18T07:11:33;-4.60;99.90
24017;DHT22;12222;50.090;19.702;2022-12-18T07:16:35;-4.70;99.90
24017;DHT22;12222;50.090;19.702;2022-12-18T07:21:37;-4.60;99.90
24017;DHT22;12222;50.090;19.702;2022-12-18T07:26:39;-4.60;99.90
24017;DHT22;12222;50.090;19.702;2022-12-18T07:31:41;-4.40;99.90
24017;DHT22;12222;50.090;19.702;2022-12-18T07:36:43;-4.40;99.90
24017;DHT22;12222;50.090;19.702;2022-12-18T07:41:45;-4.40;99.90
24017;DHT22;12222;50.090;19.702;2022-12-18T07:47:09;-4.50;99.90
24017;DHT22;12222;50.090;19.702;2022-12-18T07:52:13;-4.40;99.90
24017;DHT22;12222;50.090;19.702;2022-12-18T07:57:15;-4.30;99.90
24017;DHT22;12222;50.090;19.702;2022-12-18T08:02:37;-4.30;99.90
24017;DHT22;12222;50.090;19.702;2022-12-18T08:07:39;-4.20;99.90
24017;DHT22;12222;50.090;19.702;2022-12-18T08:12:41;-4.10;99.90
24017;DHT22;12222;50.090;19.702;2022-12-18T08:17:43;-3.90;99.90
24017;DHT22;12222;50.090;19.702;2022-12-18T08:22:45;-3.70;99.90
24017;DHT22;12222;50.090;19.702;2022-12-18T08:27:47;-3.60;99.90
24017;DHT22;12222;50.090;19.702;2022-12-18T08:32:51;-3.70;99.90
24017;DHT22;12222;50.090;19.702;2022-12-18T08:37:54;-3.50;99.90
24017;DHT22;12222;50.090;19.702;2022-12-18T08:42:56;-3.40;99.90
24017;DHT22;12222;50.090;19.702;2022-12-18T08:48:16;-3.20;99.90
24017;DHT22;12222;50.090;19.702;2022-12-18T08:53:23;-3.20;99.90
24017;DHT22;12222;50.090;19.702;2022-12-18T08:58:24;-2.90;99.90
24017;DHT22;12222;50.090;19.702;2022-12-18T09:03:26;-2.80;99.90
24017;DHT22;12222;50.090;19.702;2022-12-18T09:08:28;-2.90;99.90
24017;DHT22;12222;50.090;19.702;2022-12-18T09:13:30;-2.50;99.90
24017;DHT22;12222;50.090;19.702;2022-12-18T09:18:32;-2.20;99.90
24017;DHT22;12222;50.090;19.702;2022-12-18T09:23:34;-2.60;99.90
24017;DHT22;12222;50.090;19.702;2022-12-18T09:28:36;-2.70;99.90
24017;DHT22;12222;50.090;19.702;2022-12-18T09:33:38;-2.10;99.90
24017;DHT22;12222;50.090;19.702;2022-12-18T09:38:40;-2.20;99.90
24017;DHT22;12222;50.090;19.702;2022-12-18T09:43:47;-2.80;99.90
24017;DHT22;12222;50.090;19.702;2022-12-18T09:48:51;-2.30;99.90
24017;DHT22;12222;50.090;19.702;2022-12-18T09:53:58;-2.30;99.90
24017;DHT22;12222;50.090;19.702;2022-12-18T09:59:03;-2.30;99.90
24017;DHT22;12222;50.090;19.702;2022-12-18T10:04:08;-1.80;99.90
24017;DHT22;12222;50.090;19.702;2022-12-18T10:09:32;-2.00;99.90
24017;DHT22;12222;50.090;19.702;2022-12-18T10:14:57;-2.10;99.90
24017;DHT22;12222;50.090;19.702;2022-12-18T10:30:45;-1.90;99.90
24017;DHT22;12222;50.090;19.702;2022-12-18T10:35:49;-2.60;99.90
24017;DHT22;12222;50.090;19.702;2022-12-18T10:51:40;-2.60;99.90
24017;DHT22;12222;50.090;19.702;2022-12-18T10:56:41;-2.20;99.90
24017;DHT22;12222;50.090;19.702;2022-12-18T11:01:55;-1.40;99.90
24017;DHT22;12222;50.090;19.702;2022-12-18T11:06:59;-0.90;99.90
24017;DHT22;12222;50.090;19.702;2022-12-18T11:12:16;-1.10;99.90
24017;DHT22;12222;50.090;19.702;2022-12-18T11:22:33;-0.80;99.90
24017;DHT22;12222;50.090;19.702;2022-12-18T11:27:37;-1.10;99.90
24017;DHT22;12222;50.090;19.702;2022-12-18T11:32:47;-1.20;99.90
24017;DHT22;12222;50.090;19.702;2022-12-18T11:37:54;-1.60;99.90
24017;DHT22;12222;50.090;19.702;2022-12-18T11:43:15;-1.40;99.90
24017;DHT22;12222;50.090;19.702;2022-12-18T11:53:27;-1.50;99.90
24017;DHT22;12222;50.090;19.702;2022-12-18T11:58:51;-1.30;99.90
24017;DHT22;12222;50.090;19.702;2022-12-18T12:04:21;-2.10;99.90
24017;DHT22;12222;50.090;19.702;2022-12-18T12:15:31;-3.00;99.90
24017;DHT22;12222;50.090;19.702;2022-12-18T12:26:06;-3.20;99.90
24017;DHT22;12222;50.090;19.702;2022-12-18T12:41:54;-2.60;99.90
24017;DHT22;12222;50.090;19.702;2022-12-18T12:47:29;-1.90;99.90
24017;DHT22;12222;50.090;19.702;2022-12-18T12:52:37;-1.90;99.90
24017;DHT22;12222;50.090;19.702;2022-12-18T12:57:48;-2.60;99.90
24017;DHT22;12222;50.090;19.702;2022-12-18T13:03:14;-2.70;99.90
24017;DHT22;12222;50.090;19.702;2022-12-18T13:08:26;-2.80;99.90
24017;DHT22;12222;50.090;19.702;2022-12-18T13:13:51;-2.70;99.90
24017;DHT22;12222;50.090;19.702;2022-12-18T13:18:56;-2.60;99.90
24017;DHT22;12222;50.090;19.702;2022-12-18T13:24:27;-2.60;99.90
24017;DHT22;12222;50.090;19.702;2022-12-18T13:29:44;-2.70;99.90
24017;DHT22;12222;50.090;19.702;2022-12-18T13:34:47;-2.20;99.90
24017;DHT22;12222;50.090;19.702;2022-12-18T13:39:49;-2.60;99.90
24017;DHT22;12222;50.090;19.702;2022-12-18T13:44:51;-2.60;99.90
24017;DHT22;12222;50.090;19.702;2022-12-18T13:49:53;-2.30;99.90
24017;DHT22;12222;50.090;19.702;2022-12-18T13:54:56;-2.20;99.90
24017;DHT22;12222;50.090;19.702;2022-12-18T14:00:36;-2.80;99.90
24017;DHT22;12222;50.090;19.702;2022-12-18T14:05:44;-3.30;99.90
24017;DHT22;12222;50.090;19.702;2022-12-18T14:10:48;-3.90;99.90
24017;DHT22;12222;50.090;19.702;2022-12-18T14:15:52;-4.50;99.90
24017;DHT22;12222;50.090;19.702;2022-12-18T14:20:59;-4.60;99.90
24017;DHT22;12222;50.090;19.702;2022-12-18T14:26:21;-5.40;99.90
24017;DHT22;12222;50.090;19.702;2022-12-18T14:31:25;-6.10;99.90
24017;DHT22;12222;50.090;19.702;2022-12-18T14:36:28;-6.30;99.90
24017;DHT22;12222;50.090;19.702;2022-12-18T14:41:30;-6.20;99.90
24017;DHT22;12222;50.090;19.702;2022-12-18T14:46:43;-6.80;99.90
24017;DHT22;12222;50.090;19.702;2022-12-18T14:51:53;-7.30;99.90
24017;DHT22;12222;50.090;19.702;2022-12-18T15:02:21;-7.80;99.90
24017;DHT22;12222;50.090;19.702;2022-12-18T15:07:24;-8.10;99.90
24017;DHT22;12222;50.090;19.702;2022-12-18T15:17:35;-8.80;99.90
24017;DHT22;12222;50.090;19.702;2022-12-18T15:22:37;-9.10;99.90
24017;DHT22;12222;50.090;19.702;2022-12-18T15:27:45;-9.40;99.90
24017;DHT22;12222;50.090;19.702;2022-12-18T15:32:48;-9.50;99.90
24017;DHT22;12222;50.090;19.702;2022-12-18T15:37:52;-9.50;99.90
24017;DHT22;12222;50.090;19.702;2022-12-18T15:42:54;-9.70;99.90
24017;DHT22;12222;50.090;19.702;2022-12-18T15:48:22;-9.50;99.90
24017;DHT22;12222;50.090;19.702;2022-12-18T15:53:27;-9.60;99.90
24017;DHT22;12222;50.090;19.702;2022-12-18T15:58:30;-9.90;99.90
24017;DHT22;12222;50.090;19.702;2022-12-18T16:03:32;-10.00;99.90
24017;DHT22;12222;50.090;19.702;2022-12-18T16:08:34;-10.10;99.90
24017;DHT22;12222;50.090;19.702;2022-12-18T16:13:36;-10.20;99.90
24017;DHT22;12222;50.090;19.702;2022-12-18T16:18:39;-10.10;99.90
24017;DHT22;12222;50.090;19.702;2022-12-18T16:23:41;-9.90;99.90
24017;DHT22;12222;50.090;19.702;2022-12-18T16:28:43;-9.80;99.90
24017;DHT22;12222;50.090;19.702;2022-12-18T16:33:49;-10.00;99.90
24017;DHT22;12222;50.090;19.702;2022-12-18T16:38:51;-10.10;99.90
24017;DHT22;12222;50.090;19.702;2022-12-18T16:43:53;-10.00;99.90
24017;DHT22;12222;50.090;19.702;2022-12-18T16:48:57;-10.10;99.90
24017;DHT22;12222;50.090;19.702;2022-12-18T16:54:01;-9.60;99.90
24017;DHT22;12222;50.090;19.702;2022-12-18T16:59:10;-9.40;99.90
24017;DHT22;12222;50.090;19.702;2022-12-18T17:04:12;-9.70;99.90
24017;DHT22;12222;50.090;19.702;2022-12-18T17:09:15;-9.60;99.90
24017;DHT22;12222;50.090;19.702;2022-12-18T17:14:20;-9.30;99.90
24017;DHT22;12222;50.090;19.702;2022-12-18T17:19:23;-9.40;99.90
24017;DHT22;12222;50.090;19.702;2022-12-18T17:24:25;-9.70;99.90
24017;DHT22;12222;50.090;19.702;2022-12-18T17:29:35;-9.40;99.90
24017;DHT22;12222;50.090;19.702;2022-12-18T17:34:37;-9.00;99.90
24017;DHT22;12222;50.090;19.702;2022-12-18T17:39:39;-8.80;99.90
24017;DHT22;12222;50.090;19.702;2022-12-18T17:44:41;-8.80;99.90
24017;DHT22;12222;50.090;19.702;2022-12-18T17:49:44;-8.80;99.90
24017;DHT22;12222;50.090;19.702;2022-12-18T17:54:46;-8.90;99.90
24017;DHT22;12222;50.090;19.702;2022-12-18T17:59:49;-9.00;99.90
24017;DHT22;12222;50.090;19.702;2022-12-18T18:04:51;-9.10;99.90
24017;DHT22;12222;50.090;19.702;2022-12-18T18:09:53;-9.20;99.90
24017;DHT22;12222;50.090;19.702;2022-12-18T18:14:55;-9.20;99.90
24017;DHT22;12222;50.090;19.702;2022-12-18T18:19:57;-9.40;99.90
24017;DHT22;12222;50.090;19.702;2022-12-18T18:24:59;-9.50;99.90
24017;DHT22;12222;50.090;19.702;2022-12-18T18:30:02;-9.40;99.90
24017;DHT22;12222;50.090;19.702;2022-12-18T18:35:07;-9.20;99.90
24017;DHT22;12222;50.090;19.702;2022-12-18T18:40:25;-9.30;99.90
24017;DHT22;12222;50.090;19.702;2022-12-18T18:45:29;-9.20;99.90
24017;DHT22;12222;50.090;19.702;2022-12-18T18:50:31;-9.30;99.90
24017;DHT22;12222;50.090;19.702;2022-12-18T18:55:33;-9.30;99.90
24017;DHT22;12222;50.090;19.702;2022-12-18T19:00:34;-9.10;99.90
24017;DHT22;12222;50.090;19.702;2022-12-18T19:05:37;-9.20;99.90
24017;DHT22;12222;50.090;19.702;2022-12-18T19:10:43;-9.20;99.90
24017;DHT22;12222;50.090;19.702;2022-12-18T19:15:50;-9.30;99.90
24017;DHT22;12222;50.090;19.702;2022-12-18T19:21:04;-9.30;99.90
24017;DHT22;12222;50.090;19.702;2022-12-18T19:26:07;-9.30;99.90
24017;DHT22;12222;50.090;19.702;2022-12-18T19:31:29;-9.40;99.90
24017;DHT22;12222;50.090;19.702;2022-12-18T19:36:38;-9.50;99.90
24017;DHT22;12222;50.090;19.702;2022-12-18T19:41:42;-9.40;99.90
24017;DHT22;12222;50.090;19.702;2022-12-18T19:46:44;-9.50;99.90
24017;DHT22;12222;50.090;19.702;2022-12-18T19:51:51;-9.50;99.90
24017;DHT22;12222;50.090;19.702;2022-12-18T19:56:53;-9.70;99.90
24017;DHT22;12222;50.090;19.702;2022-12-18T20:01:54;-9.90;99.90
24017;DHT22;12222;50.090;19.702;2022-12-18T20:06:57;-9.90;99.90
24017;DHT22;12222;50.090;19.702;2022-12-18T20:11:58;-9.90;99.90
24017;DHT22;12222;50.090;19.702;2022-12-18T20:17:00;-9.60;99.90
24017;DHT22;12222;50.090;19.702;2022-12-18T20:22:03;-9.50;99.90
24017;DHT22;12222;50.090;19.702;2022-12-18T20:27:04;-9.50;99.90
24017;DHT22;12222;50.090;19.702;2022-12-18T20:32:14;-9.40;99.90
24017;DHT22;12222;50.090;19.702;2022-12-18T20:37:16;-9.30;99.90
24017;DHT22;12222;50.090;19.702;2022-12-18T20:42:19;-9.40;99.90
24017;DHT22;12222;50.090;19.702;2022-12-18T20:47:21;-9.50;99.90
24017;DHT22;12222;50.090;19.702;2022-12-18T20:52:23;-9.40;99.90
24017;DHT22;12222;50.090;19.702;2022-12-18T20:57:25;-9.40;99.90
24017;DHT22;12222;50.090;19.702;2022-12-18T21:02:27;-9.30;99.90
24017;DHT22;12222;50.090;19.702;2022-12-18T21:07:29;-9.30;99.90
24017;DHT22;12222;50.090;19.702;2022-12-18T21:12:31;-9.20;99.90
24017;DHT22;12222;50.090;19.702;2022-12-18T21:17:49;-9.50;99.90
24017;DHT22;12222;50.090;19.702;2022-12-18T21:22:50;-9.60;99.90
24017;DHT22;12222;50.090;19.702;2022-12-18T21:27:55;-9.60;99.90
24017;DHT22;12222;50.090;19.702;2022-12-18T21:32:57;-9.50;99.90
24017;DHT22;12222;50.090;19.702;2022-12-18T21:37:59;-9.50;99.90
24017;DHT22;12222;50.090;19.702;2022-12-18T21:43:04;-9.40;99.90
24017;DHT22;12222;50.090;19.702;2022-12-18T21:48:25;-9.30;99.90
24017;DHT22;12222;50.090;19.702;2022-12-18T21:53:27;-9.30;99.90
24017;DHT22;12222;50.090;19.702;2022-12-18T21:58:28;-9.40;99.90
24017;DHT22;12222;50.090;19.702;2022-12-18T22:03:30;-9.60;99.90
24017;DHT22;12222;50.090;19.702;2022-12-18T22:08:33;-9.60;99.90
24017;DHT22;12222;50.090;19.702;2022-12-18T22:13:35;-9.80;99.90
24017;DHT22;12222;50.090;19.702;2022-12-18T22:18:36;-9.90;99.90
24017;DHT22;12222;50.090;19.702;2022-12-18T22:23:38;-9.90;99.90
24017;DHT22;12222;50.090;19.702;2022-12-18T22:28:40;-9.90;99.90
24017;DHT22;12222;50.090;19.702;2022-12-18T22:34:01;-9.80;99.90
24017;DHT22;12222;50.090;19.702;2022-12-18T22:39:05;-9.70;99.90
24017;DHT22;12222;50.090;19.702;2022-12-18T22:44:08;-9.70;99.90
24017;DHT22;12222;50.090;19.702;2022-12-18T22:49:17;-9.70;99.90
24017;DHT22;12222;50.090;19.702;2022-12-18T22:54:19;-9.80;99.90
24017;DHT22;12222;50.090;19.702;2022-12-18T22:59:22;-9.90;99.90
24017;DHT22;12222;50.090;19.702;2022-12-18T23:04:25;-9.80;99.90
24017;DHT22;12222;50.090;19.702;2022-12-18T23:09:37;-9.80;99.90
24017;DHT22;12222;50.090;19.702;2022-12-18T23:14:39;-9.90;99.90
24017;DHT22;12222;50.090;19.702;2022-12-18T23:19:41;-10.10;99.90
24017;DHT22;12222;50.090;19.702;2022-12-18T23:24:49;-10.10;99.90
24017;DHT22;12222;50.090;19.702;2022-12-18T23:29:51;-10.10;99.90
24017;DHT22;12222;50.090;19.702;2022-12-18T23:34:55;-9.90;99.90
24017;DHT22;12222;50.090;19.702;2022-12-18T23:39:57;-9.90;99.90
24017;DHT22;12222;50.090;19.702;2022-12-18T23:44:59;-10.30;99.90
24017;DHT22;12222;50.090;19.702;2022-12-18T23:50:04;-10.70;99.90
24017;DHT22;12222;50.090;19.702;2022-12-18T23:55:07;-10.90;99.90
